Liberta — V2CM3 — position and weather

sailwx.info

Track history (hours):
 
Tides and Currents Weather Stations Pressure Air Temp Water Temp Dewpoint Dewpoint Depression Visibility Wind Speed Wind Dir Waves Ship Positions

Liberta

Last reported at 2015-Apr-27 21:28 UTC. Time now 2015-May-28 04:08 UTC.
Position N 29°55' W 089°55'.
Warning: this ship's position is 30 days out of date.

Length 138 m; draft 7.6 m.

Type: Cargo ship. MMSI: 305043000.

Date/timePositionNaut miles runAvg speedWind from/ knotsBaromVisibWave heightAir tempDewpointWater temp
2015-Apr-27 21:28N 29°55' W 089°55'1111.0
2015-Apr-27 20:26N 29°55' W 090°08'47 2.6
2015-Apr-27 02:29N 30°08' W 091°01'0 0.0
2015-Apr-27 01:29N 30°08' W 091°01'0 0.0
2015-Apr-26 15:11N 30°08' W 091°01'0 0.0
2015-Apr-26 11:17N 30°08' W 091°01'0 0.0
2015-Apr-25 20:29N 30°08' W 091°01'0 0.0
2015-Apr-25 01:11N 30°08' W 091°01'0 0.0
2015-Apr-24 12:14N 30°08' W 091°01'34 1.3
2015-Apr-23 10:05N 29°57' W 090°23'13 6.5
2015-Apr-23 08:08N 29°57' W 090°09'4 6.3
2015-Apr-23 07:31N 29°55' W 090°05'3 0.2
2015-Apr-22 13:04N 29°58' W 090°02'0 0.0
2015-Apr-22 09:19N 29°58' W 090°02'0 0.0
2015-Apr-22 08:28N 29°58' W 090°02'0 0.0
2015-Apr-22 07:28N 29°58' W 090°02'0 0.0
2015-Apr-22 04:25N 29°58' W 090°02'0 0.0
2015-Apr-22 03:22N 29°58' W 090°02'0 0.0
2015-Apr-22 02:31N 29°58' W 090°02'0 0.0
2015-Apr-21 22:13N 29°58' W 090°02'0 0.0
2015-Apr-20 18:22N 29°58' W 090°02'0 0.0
2015-Apr-20 17:28N 29°58' W 090°02'0 0.0
2015-Apr-20 16:07N 29°58' W 090°02'0 0.0
2015-Apr-20 14:10N 29°58' W 090°02'0 0.0
2015-Apr-20 12:10N 29°58' W 090°02'0 0.0
2015-Apr-20 11:25N 29°58' W 090°02'0 0.0
2015-Apr-20 10:31N 29°58' W 090°02'0 0.0
2015-Apr-20 06:28N 29°58' W 090°02'0 0.0
2015-Apr-20 05:31N 29°58' W 090°02'0 0.0
2015-Apr-18 22:28N 29°58' W 090°02'0 0.0
2015-Apr-18 19:28N 29°58' W 090°02'0 0.0
2015-Apr-18 17:22N 29°58' W 090°02'0 0.0
2015-Apr-18 14:28N 29°58' W 090°02'0 0.0
2015-Apr-18 13:16N 29°58' W 090°02'0 0.0
2015-Apr-18 12:16N 29°58' W 090°02'0 0.0
2015-Apr-18 10:19N 29°58' W 090°02'0 0.0
2015-Apr-18 09:07N 29°58' W 090°02'  
Track history (hours):
 
Tides and Currents Weather Stations Pressure Air Temp Water Temp Dewpoint Dewpoint Depression Visibility Wind Speed Wind Dir Waves Ship Positions

Liberta

Last reported at 2015-Apr-27 21:28 UTC. Time now 2015-May-28 04:08 UTC.
Position N 29°55' W 089°55'.
Warning: this ship's position is 30 days out of date.

Length 138 m; draft 7.6 m.

Type: Cargo ship. MMSI: 305043000.

Date/timePositionNaut miles runAvg speedWind from/ knotsBaromVisibWave heightAir tempDewpointWater temp
2015-Apr-27 21:28N 29°55' W 089°55'1111.0
2015-Apr-27 20:26N 29°55' W 090°08'47 2.6
2015-Apr-27 02:29N 30°08' W 091°01'0 0.0
2015-Apr-27 01:29N 30°08' W 091°01'0 0.0
2015-Apr-26 15:11N 30°08' W 091°01'0 0.0
2015-Apr-26 11:17N 30°08' W 091°01'0 0.0
2015-Apr-25 20:29N 30°08' W 091°01'0 0.0
2015-Apr-25 01:11N 30°08' W 091°01'0 0.0
2015-Apr-24 12:14N 30°08' W 091°01'34 1.3
2015-Apr-23 10:05N 29°57' W 090°23'13 6.5
2015-Apr-23 08:08N 29°57' W 090°09'4 6.3
2015-Apr-23 07:31N 29°55' W 090°05'3 0.2
2015-Apr-22 13:04N 29°58' W 090°02'0 0.0
2015-Apr-22 09:19N 29°58' W 090°02'0 0.0
2015-Apr-22 08:28N 29°58' W 090°02'0 0.0
2015-Apr-22 07:28N 29°58' W 090°02'0 0.0
2015-Apr-22 04:25N 29°58' W 090°02'0 0.0
2015-Apr-22 03:22N 29°58' W 090°02'0 0.0
2015-Apr-22 02:31N 29°58' W 090°02'0 0.0
2015-Apr-21 22:13N 29°58' W 090°02'0 0.0
2015-Apr-20 18:22N 29°58' W 090°02'0 0.0
2015-Apr-20 17:28N 29°58' W 090°02'0 0.0
2015-Apr-20 16:07N 29°58' W 090°02'0 0.0
2015-Apr-20 14:10N 29°58' W 090°02'0 0.0
2015-Apr-20 12:10N 29°58' W 090°02'0 0.0
2015-Apr-20 11:25N 29°58' W 090°02'0 0.0
2015-Apr-20 10:31N 29°58' W 090°02'0 0.0
2015-Apr-20 06:28N 29°58' W 090°02'0 0.0
2015-Apr-20 05:31N 29°58' W 090°02'0 0.0
2015-Apr-18 22:28N 29°58' W 090°02'0 0.0
2015-Apr-18 19:28N 29°58' W 090°02'0 0.0
2015-Apr-18 17:22N 29°58' W 090°02'0 0.0
2015-Apr-18 14:28N 29°58' W 090°02'0 0.0
2015-Apr-18 13:16N 29°58' W 090°02'0 0.0
2015-Apr-18 12:16N 29°58' W 090°02'0 0.0
2015-Apr-18 10:19N 29°58' W 090°02'0 0.0
2015-Apr-18 09:07N 29°58' W 090°02'  

Dump ship's entire track history